Time,TemperatureF,DewpointF,PressureIn,WindDirection,WindDirectionDegrees,WindSpeedMPH,WindSpeedGustMPH,Humidity,HourlyPrecipIn,Conditions,Clouds,dailyrainin,SoftwareType,DateUTC
2013-03-02 00:00:00,53.4,9.7,30.15,ENE,60,0.0,0.0,17,0.00,,CLR,0.00,VWS V14.01,2013-03-02 08:00:00,
2013-03-02 00:05:00,53.0,13.1,30.15,ENE,60,0.0,0.0,20,0.00,,CLR,0.00,VWS V14.01,2013-03-02 08:05:00,
2013-03-02 00:11:00,52.9,12.9,30.15,ENE,60,0.0,0.0,20,0.00,,CLR,0.00,VWS V14.01,2013-03-02 08:11:00,
2013-03-02 00:17:00,52.7,15.9,30.15,ENE,60,0.0,0.0,23,0.00,,CLR,0.00,VWS V14.01,2013-03-02 08:17:00,
2013-03-02 00:22:00,52.7,18.8,30.15,ENE,60,0.0,0.0,26,0.00,,CLR,0.00,VWS V14.01,2013-03-02 08:22:00,
2013-03-02 00:28:00,52.5,18.6,30.15,ENE,60,0.0,0.0,26,0.00,,CLR,0.00,VWS V14.01,2013-03-02 08:28:00,
2013-03-02 00:33:00,52.3,18.5,30.15,ENE,61,0.0,0.0,26,0.00,,CLR,0.00,VWS V14.01,2013-03-02 08:33:00,
2013-03-02 00:39:00,52.1,18.3,30.15,ENE,61,0.0,0.0,26,0.00,,CLR,0.00,VWS V14.01,2013-03-02 08:39:00,
2013-03-02 00:44:00,52.0,19.0,30.15,ENE,61,0.0,0.0,27,0.00,,CLR,0.00,VWS V14.01,2013-03-02 08:44:00,
2013-03-02 00:50:00,52.0,19.0,30.15,ENE,61,0.0,0.0,27,0.00,,CLR,0.00,VWS V14.01,2013-03-02 08:50:00,
2013-03-02 00:55:00,51.8,18.9,30.15,ENE,61,0.0,0.0,27,0.00,,CLR,0.00,VWS V14.01,2013-03-02 08:55:00,
2013-03-02 01:00:00,51.6,18.7,30.15,ENE,61,0.0,0.0,27,0.00,,CLR,0.00,VWS V14.01,2013-03-02 09:00:00,
2013-03-02 01:06:00,51.2,19.3,30.15,ENE,61,0.0,0.0,28,0.00,,CLR,0.00,VWS V14.01,2013-03-02 09:06:00,
2013-03-02 01:11:00,51.1,19.1,30.15,ENE,61,0.0,0.0,28,0.00,,CLR,0.00,VWS V14.01,2013-03-02 09:11:00,
2013-03-02 01:17:00,51.1,19.1,30.15,ENE,61,0.0,0.0,28,0.00,,CLR,0.00,VWS V14.01,2013-03-02 09:17:00,
2013-03-02 01:22:00,50.7,18.8,30.15,ENE,61,0.0,0.0,28,0.00,,CLR,0.00,VWS V14.01,2013-03-02 09:22:00,
2013-03-02 01:27:00,50.7,18.8,30.15,ENE,61,0.0,0.0,28,0.00,,CLR,0.00,VWS V14.01,2013-03-02 09:27:00,
2013-03-02 01:33:00,50.5,18.6,30.15,ENE,61,0.0,0.0,28,0.00,,CLR,0.00,VWS V14.01,2013-03-02 09:33:00,
2013-03-02 01:39:00,50.3,18.5,30.15,ENE,61,0.0,0.0,28,0.00,,CLR,0.00,VWS V14.01,2013-03-02 09:39:00,
2013-03-02 01:45:00,50.2,19.1,30.15,ENE,61,0.0,0.0,29,0.00,,CLR,0.00,VWS V14.01,2013-03-02 09:45:00,
2013-03-02 01:50:00,50.2,19.1,30.15,ENE,61,0.0,0.0,29,0.00,,CLR,0.00,VWS V14.01,2013-03-02 09:50:00,
2013-03-02 01:56:00,49.8,18.8,30.15,ENE,61,0.0,0.0,29,0.00,,CLR,0.00,VWS V14.01,2013-03-02 09:56:00,
2013-03-02 02:01:00,49.8,18.8,30.15,ENE,61,0.0,0.0,29,0.00,,CLR,0.00,VWS V14.01,2013-03-02 10:01:00,
2013-03-02 02:07:00,49.6,19.5,30.12,NNW,332,0.0,0.0,30,0.00,,CLR,0.00,VWS V14.01,2013-03-02 10:07:00,
2013-03-02 02:14:00,49.4,19.3,30.12,NNW,332,0.0,0.0,30,0.00,,CLR,0.00,VWS V14.01,2013-03-02 10:14:00,
2013-03-02 02:20:00,49.3,19.2,30.12,NNW,332,0.0,0.0,30,0.00,,CLR,0.00,VWS V14.01,2013-03-02 10:20:00,
2013-03-02 02:25:00,49.1,19.0,30.12,NNW,332,0.0,0.0,30,0.00,,CLR,0.00,VWS V14.01,2013-03-02 10:25:00,
2013-03-02 02:31:00,48.9,19.6,30.12,NNW,332,0.0,0.0,31,0.00,,CLR,0.00,VWS V14.01,2013-03-02 10:31:00,
2013-03-02 02:37:00,48.7,19.5,30.12,NNW,332,0.0,0.0,31,0.00,,CLR,0.00,VWS V14.01,2013-03-02 10:37:00,
2013-03-02 02:42:00,48.7,20.2,30.12,NNW,332,0.0,0.0,32,0.00,,CLR,0.00,VWS V14.01,2013-03-02 10:42:00,
2013-03-02 02:48:00,48.7,20.9,30.12,NW,325,0.0,0.0,33,0.00,,CLR,0.00,VWS V14.01,2013-03-02 10:48:00,
2013-03-02 02:54:00,48.7,20.9,30.12,NW,325,0.0,0.0,33,0.00,,CLR,0.00,VWS V14.01,2013-03-02 10:54:00,
2013-03-02 02:59:00,48.7,20.9,30.12,NW,325,0.0,0.0,33,0.00,,CLR,0.00,VWS V14.01,2013-03-02 10:59:00,
2013-03-02 03:05:00,48.5,20.8,30.12,NW,325,0.0,0.0,33,0.00,,CLR,0.00,VWS V14.01,2013-03-02 11:05:00,
2013-03-02 03:10:00,48.5,20.8,30.12,NW,325,0.0,0.0,33,0.00,,CLR,0.00,VWS V14.01,2013-03-02 11:10:00,
2013-03-02 03:16:00,48.4,21.3,30.12,NW,325,0.0,0.0,34,0.00,,CLR,0.00,VWS V14.01,2013-03-02 11:16:00,
2013-03-02 03:21:00,48.4,21.3,30.12,NW,325,0.0,0.0,34,0.00,,CLR,0.00,VWS V14.01,2013-03-02 11:21:00,
2013-03-02 03:27:00,48.4,21.3,30.12,NW,325,0.0,0.0,34,0.00,,CLR,0.00,VWS V14.01,2013-03-02 11:27:00,
2013-03-02 03:33:00,48.2,20.5,30.12,NW,325,0.0,0.0,33,0.00,,CLR,0.00,VWS V14.01,2013-03-02 11:33:00,
2013-03-02 03:38:00,48.0,20.3,30.12,NW,325,0.0,0.0,33,0.00,,CLR,0.00,VWS V14.01,2013-03-02 11:38:00,
2013-03-02 03:43:00,47.8,20.8,30.12,NW,325,0.0,0.0,34,0.00,,CLR,0.00,VWS V14.01,2013-03-02 11:43:00,
2013-03-02 03:48:00,47.6,21.4,30.12,NW,325,0.0,0.0,35,0.00,,CLR,0.00,VWS V14.01,2013-03-02 11:48:00,
2013-03-02 03:54:00,47.6,22.7,30.12,NW,325,0.0,0.0,37,0.00,,CLR,0.00,VWS V14.01,2013-03-02 11:54:00,
2013-03-02 03:59:00,47.5,22.5,30.12,NW,325,0.0,0.0,37,0.00,,CLR,0.00,VWS V14.01,2013-03-02 11:59:00,
2013-03-02 04:05:00,47.3,22.4,30.12,NW,325,0.0,0.0,37,0.00,,CLR,0.00,VWS V14.01,2013-03-02 12:05:00,
2013-03-02 04:10:00,47.1,22.2,30.12,NW,325,0.0,0.0,37,0.00,,CLR,0.00,VWS V14.01,2013-03-02 12:10:00,
2013-03-02 04:16:00,46.9,22.0,30.12,NW,326,0.0,0.0,37,0.00,,CLR,0.00,VWS V14.01,2013-03-02 12:16:00,
2013-03-02 04:21:00,46.9,22.0,30.12,NNW,340,0.0,0.0,37,0.00,,CLR,0.00,VWS V14.01,2013-03-02 12:21:00,
2013-03-02 04:27:00,46.7,21.9,30.12,NNW,340,0.0,0.0,37,0.00,,CLR,0.00,VWS V14.01,2013-03-02 12:27:00,
2013-03-02 04:32:00,46.6,21.7,30.12,NNW,340,0.0,0.0,37,0.00,,CLR,0.00,VWS V14.01,2013-03-02 12:32:00,
2013-03-02 04:37:00,46.6,22.3,30.12,NNW,340,0.0,0.0,38,0.00,,CLR,0.00,VWS V14.01,2013-03-02 12:37:00,
2013-03-02 04:43:00,46.7,23.1,30.12,NNW,340,0.0,0.0,39,0.00,,CLR,0.00,VWS V14.01,2013-03-02 12:43:00,
2013-03-02 04:49:00,46.7,23.1,30.12,NNW,329,0.0,0.0,39,0.00,,CLR,0.00,VWS V14.01,2013-03-02 12:49:00,
2013-03-02 04:54:00,46.7,23.1,30.12,NNW,342,3.6,3.6,39,0.00,,CLR,0.00,VWS V14.01,2013-03-02 12:54:00,
2013-03-02 04:59:00,46.9,23.3,30.12,North,353,4.0,4.0,39,0.00,,CLR,0.00,VWS V14.01,2013-03-02 12:59:00,
2013-03-02 05:04:00,47.6,23.9,30.12,North,357,3.6,3.6,39,0.00,,CLR,0.00,VWS V14.01,2013-03-02 13:04:00,
2013-03-02 05:09:00,47.6,23.3,30.12,North,353,3.6,4.0,38,0.00,,CLR,0.00,VWS V14.01,2013-03-02 13:09:00,
2013-03-02 05:15:00,48.2,23.1,30.12,North,353,0.0,2.7,37,0.00,,CLR,0.00,VWS V14.01,2013-03-02 13:15:00,
2013-03-02 05:20:00,48.2,22.5,30.12,North,353,0.0,0.0,36,0.00,,CLR,0.00,VWS V14.01,2013-03-02 13:20:00,
2013-03-02 05:25:00,48.0,21.0,30.12,NW,316,0.0,0.0,34,0.00,,CLR,0.00,VWS V14.01,2013-03-02 13:25:00,
2013-03-02 05:30:00,48.2,21.1,30.12,NW,314,0.0,0.0,34,0.00,,CLR,0.00,VWS V14.01,2013-03-02 13:30:00,
2013-03-02 05:36:00,48.0,20.3,30.12,NW,314,0.0,0.0,33,0.00,,CLR,0.00,VWS V14.01,2013-03-02 13:36:00,
2013-03-02 05:41:00,47.8,20.1,30.12,NW,314,0.0,0.0,33,0.00,,CLR,0.00,VWS V14.01,2013-03-02 13:41:00,
2013-03-02 05:47:00,47.5,20.5,30.12,NNW,343,2.7,3.1,34,0.00,,CLR,0.00,VWS V14.01,2013-03-02 13:47:00,
2013-03-02 05:52:00,47.6,21.4,30.12,North,353,3.6,4.0,35,0.00,,CLR,0.00,VWS V14.01,2013-03-02 13:52:00,
2013-03-02 05:58:00,47.8,21.5,30.12,North,349,3.1,4.0,35,0.00,,CLR,0.00,VWS V14.01,2013-03-02 13:58:00,
2013-03-02 06:03:00,48.0,20.3,30.12,North,349,0.0,0.0,33,0.00,,CLR,0.00,VWS V14.01,2013-03-02 14:03:00,
2013-03-02 06:08:00,48.0,19.6,30.12,North,349,0.0,0.0,32,0.00,,CLR,0.00,VWS V14.01,2013-03-02 14:08:00,
2013-03-02 06:13:00,48.0,19.6,30.12,North,349,0.0,0.0,32,0.00,,CLR,0.00,VWS V14.01,2013-03-02 14:13:00,
2013-03-02 06:19:00,47.8,19.4,30.12,North,349,0.0,0.0,32,0.00,,CLR,0.00,VWS V14.01,2013-03-02 14:19:00,
2013-03-02 06:25:00,47.5,19.1,30.12,North,349,0.0,0.0,32,0.00,,CLR,0.00,VWS V14.01,2013-03-02 14:25:00,
2013-03-02 06:30:00,47.1,18.8,30.12,WNW,302,0.0,0.0,32,0.00,,CLR,0.00,VWS V14.01,2013-03-02 14:30:00,
2013-03-02 06:35:00,46.7,19.9,30.15,WNW,302,0.0,0.0,34,0.00,,CLR,0.00,VWS V14.01,2013-03-02 14:35:00,
2013-03-02 06:40:00,46.6,19.7,30.15,WNW,302,0.0,0.0,34,0.00,,CLR,0.00,VWS V14.01,2013-03-02 14:40:00,
2013-03-02 06:46:00,46.6,19.7,30.15,WNW,302,0.0,0.0,34,0.00,,CLR,0.00,VWS V14.01,2013-03-02 14:46:00,
2013-03-02 06:51:00,46.6,19.7,30.15,WNW,302,0.0,0.0,34,0.00,,CLR,0.00,VWS V14.01,2013-03-02 14:51:00,
2013-03-02 06:57:00,46.7,20.5,30.15,WNW,302,0.0,0.0,35,0.00,,CLR,0.00,VWS V14.01,2013-03-02 14:57:00,
2013-03-02 07:03:00,47.1,22.2,30.15,WNW,302,0.0,0.0,37,0.00,,CLR,0.00,VWS V14.01,2013-03-02 15:03:00,
2013-03-02 07:08:00,47.6,22.7,30.15,WNW,302,0.0,0.0,37,0.00,,CLR,0.00,VWS V14.01,2013-03-02 15:08:00,
2013-03-02 07:13:00,48.2,23.1,30.15,WNW,302,0.0,0.0,37,0.00,,CLR,0.00,VWS V14.01,2013-03-02 15:13:00,
2013-03-02 07:18:00,48.9,23.8,30.15,NW,305,0.0,0.0,37,0.00,,CLR,0.00,VWS V14.01,2013-03-02 15:18:00,
2013-03-02 07:24:00,50.0,24.1,30.15,NW,305,0.0,0.0,36,0.00,,CLR,0.00,VWS V14.01,2013-03-02 15:24:00,
2013-03-02 07:29:00,51.1,24.4,30.15,NW,305,0.0,0.0,35,0.00,,CLR,0.00,VWS V14.01,2013-03-02 15:29:00,
2013-03-02 07:35:00,52.1,24.6,30.15,NW,307,0.0,0.0,34,0.00,,CLR,0.00,VWS V14.01,2013-03-02 15:35:00,
2013-03-02 07:40:00,53.4,24.3,30.15,NW,307,0.0,0.0,32,0.00,,CLR,0.00,VWS V14.01,2013-03-02 15:40:00,
2013-03-02 07:46:00,54.7,23.0,30.15,NNW,327,0.0,0.0,29,0.00,,CLR,0.00,VWS V14.01,2013-03-02 15:46:00,
2013-03-02 07:51:00,55.6,22.1,30.15,NNW,327,0.0,0.0,27,0.00,,CLR,0.00,VWS V14.01,2013-03-02 15:51:00,
2013-03-02 07:57:00,57.2,21.7,30.15,NNW,327,0.0,0.0,25,0.00,,CLR,0.00,VWS V14.01,2013-03-02 15:57:00,
2013-03-02 08:02:00,58.3,22.6,30.15,NNW,329,0.0,0.0,25,0.00,,CLR,0.00,VWS V14.01,2013-03-02 16:02:00,
2013-03-02 08:07:00,59.5,17.2,30.15,North,353,0.0,0.0,19,0.00,,CLR,0.00,VWS V14.01,2013-03-02 16:07:00,
2013-03-02 08:13:00,60.6,16.9,30.15,North,353,0.0,0.0,18,0.00,,CLR,0.00,VWS V14.01,2013-03-02 16:13:00,
2013-03-02 08:18:00,61.5,14.9,30.15,North,353,0.0,0.0,16,0.00,,CLR,0.00,VWS V14.01,2013-03-02 16:18:00,
2013-03-02 08:24:00,62.6,14.3,30.15,North,353,0.0,0.0,15,0.00,,CLR,0.00,VWS V14.01,2013-03-02 16:24:00,
2013-03-02 08:29:00,63.7,15.2,30.15,North,4,2.2,3.1,15,0.00,,CLR,0.00,VWS V14.01,2013-03-02 16:29:00,
2013-03-02 08:35:00,64.4,10.7,30.15,North,3,2.2,3.1,12,0.00,,CLR,0.00,VWS V14.01,2013-03-02 16:35:00,
2013-03-02 08:41:00,65.3,11.4,30.15,North,8,4.0,4.0,12,0.00,,CLR,0.00,VWS V14.01,2013-03-02 16:41:00,
2013-03-02 08:46:00,66.0,12.0,30.15,NE,44,3.6,4.0,12,0.00,,CLR,0.00,VWS V14.01,2013-03-02 16:46:00,
2013-03-02 08:51:00,66.7,12.5,30.15,ENE,58,2.7,3.6,12,0.00,,CLR,0.00,VWS V14.01,2013-03-02 16:51:00,
2013-03-02 08:56:00,67.8,13.4,30.15,NNE,25,3.1,3.1,12,0.00,,CLR,0.00,VWS V14.01,2013-03-02 16:56:00,
2013-03-02 09:02:00,68.7,14.1,30.15,ENE,64,0.0,0.0,12,0.00,,CLR,0.00,VWS V14.01,2013-03-02 17:02:00,
2013-03-02 09:07:00,69.4,14.6,30.15,NNE,32,0.0,0.0,12,0.00,,CLR,0.00,VWS V14.01,2013-03-02 17:07:00,
2013-03-02 09:12:00,70.1,13.2,30.15,ENE,66,0.0,0.0,11,0.00,,CLR,0.00,VWS V14.01,2013-03-02 17:12:00,
2013-03-02 09:18:00,70.9,13.8,30.15,North,8,0.0,4.0,11,0.00,,CLR,0.00,VWS V14.01,2013-03-02 17:18:00,
2013-03-02 09:24:00,71.4,14.2,30.15,North,357,3.1,4.9,11,0.00,,CLR,0.00,VWS V14.01,2013-03-02 17:24:00,
2013-03-02 09:30:00,71.4,14.2,30.15,ENE,74,3.6,3.6,11,0.00,,CLR,0.00,VWS V14.01,2013-03-02 17:30:00,
2013-03-02 09:35:00,72.5,15.0,30.15,NE,39,2.7,4.0,11,0.00,,CLR,0.00,VWS V14.01,2013-03-02 17:35:00,
2013-03-02 09:41:00,73.6,13.7,30.15,ESE,118,0.0,2.7,10,0.00,,CLR,0.00,VWS V14.01,2013-03-02 17:41:00,
2013-03-02 09:46:00,73.4,13.6,30.15,ESE,113,0.0,0.0,10,0.00,,CLR,0.00,VWS V14.01,2013-03-02 17:46:00,
2013-03-02 09:51:00,74.5,14.4,30.15,ENE,59,0.0,0.0,10,0.00,,CLR,0.00,VWS V14.01,2013-03-02 17:51:00,
2013-03-02 09:56:00,75.5,15.2,30.15,SE,124,0.0,0.0,10,0.00,,CLR,0.00,VWS V14.01,2013-03-02 17:56:00,
2013-03-02 10:01:00,77.0,16.3,30.15,SE,124,0.0,0.0,10,0.00,,CLR,0.00,VWS V14.01,2013-03-02 18:01:00,
2013-03-02 10:06:00,77.3,16.6,30.15,WNW,290,0.0,0.0,10,0.00,,CLR,0.00,VWS V14.01,2013-03-02 18:06:00,
2013-03-02 10:12:00,78.2,17.2,30.15,SE,146,4.0,4.0,10,0.00,,CLR,0.00,VWS V14.01,2013-03-02 18:12:00,
2013-03-02 10:17:00,77.9,17.0,30.15,SW,226,2.7,5.4,10,0.00,,CLR,0.00,VWS V14.01,2013-03-02 18:17:00,
2013-03-02 10:23:00,78.1,17.1,30.15,South,191,2.2,3.6,10,0.00,,CLR,0.00,VWS V14.01,2013-03-02 18:23:00,
2013-03-02 10:28:00,78.2,17.2,30.15,SW,217,2.7,2.7,10,0.00,,CLR,0.00,VWS V14.01,2013-03-02 18:28:00,
2013-03-02 10:34:00,79.5,15.8,30.15,South,186,2.7,4.9,9,0.00,,CLR,0.00,VWS V14.01,2013-03-02 18:34:00,
2013-03-02 10:40:00,80.4,16.5,30.15,SW,223,3.1,3.6,9,0.00,,CLR,0.00,VWS V14.01,2013-03-02 18:40:00,
2013-03-02 10:45:00,80.8,16.7,30.15,South,178,6.3,6.3,9,0.00,,CLR,0.00,VWS V14.01,2013-03-02 18:45:00,
2013-03-02 10:50:00,80.2,16.3,30.15,SSW,201,5.8,8.1,9,0.00,,CLR,0.00,VWS V14.01,2013-03-02 18:50:00,
2013-03-02 10:55:00,80.2,16.3,30.15,SSW,198,5.4,8.1,9,0.00,,CLR,0.00,VWS V14.01,2013-03-02 18:55:00,
2013-03-02 11:00:00,78.6,15.1,30.15,West,270,6.3,11.0,9,0.00,,CLR,0.00,VWS V14.01,2013-03-02 19:00:00,
2013-03-02 11:06:00,80.2,16.3,30.12,South,184,3.6,7.6,9,0.00,,CLR,0.00,VWS V14.01,2013-03-02 19:06:00,
2013-03-02 11:11:00,80.8,16.7,30.12,South,172,5.8,5.8,9,0.00,,CLR,0.00,VWS V14.01,2013-03-02 19:11:00,
2013-03-02 11:17:00,80.8,16.7,30.12,SSW,203,5.4,5.4,9,0.00,,CLR,0.00,VWS V14.01,2013-03-02 19:17:00,
2013-03-02 11:23:00,81.3,17.1,30.12,WNW,283,5.4,5.8,9,0.00,,CLR,0.00,VWS V14.01,2013-03-02 19:23:00,
2013-03-02 11:28:00,79.3,15.6,30.12,WSW,244,8.3,8.3,9,0.00,,CLR,0.00,VWS V14.01,2013-03-02 19:28:00,
2013-03-02 11:34:00,79.5,15.8,30.12,South,191,6.3,6.3,9,0.00,,CLR,0.00,VWS V14.01,2013-03-02 19:34:00,
2013-03-02 11:39:00,80.2,16.3,30.12,SSW,207,5.8,5.8,9,0.00,,CLR,0.00,VWS V14.01,2013-03-02 19:39:00,
2013-03-02 11:44:00,81.8,17.5,30.12,SSW,210,3.6,5.8,9,0.00,,CLR,0.00,VWS V14.01,2013-03-02 19:44:00,
2013-03-02 11:50:00,82.2,15.1,30.12,SW,217,5.4,6.3,8,0.00,,CLR,0.00,VWS V14.01,2013-03-02 19:50:00,
2013-03-02 11:55:00,81.1,17.0,30.12,SW,219,5.4,5.8,9,0.00,,CLR,0.00,VWS V14.01,2013-03-02 19:55:00,
2013-03-02 12:01:00,82.0,17.7,30.12,SSW,196,8.3,8.3,9,0.00,,CLR,0.00,VWS V14.01,2013-03-02 20:01:00,
2013-03-02 12:06:00,80.2,16.3,30.09,WSW,249,10.1,10.1,9,0.00,,CLR,0.00,VWS V14.01,2013-03-02 20:06:00,
2013-03-02 12:11:00,80.8,16.7,30.09,WSW,238,5.4,6.3,9,0.00,,CLR,0.00,VWS V14.01,2013-03-02 20:11:00,
2013-03-02 12:16:00,81.3,17.1,30.09,SSW,198,4.0,5.8,9,0.00,,CLR,0.00,VWS V14.01,2013-03-02 20:16:00,
2013-03-02 12:22:00,81.8,17.5,30.09,South,184,4.9,8.3,9,0.00,,CLR,0.00,VWS V14.01,2013-03-02 20:22:00,
2013-03-02 12:27:00,81.8,17.5,30.09,WSW,245,3.6,7.2,9,0.00,,CLR,0.00,VWS V14.01,2013-03-02 20:27:00,
2013-03-02 12:33:00,81.7,17.4,30.09,WSW,244,3.1,6.3,9,0.00,,CLR,0.00,VWS V14.01,2013-03-02 20:33:00,
2013-03-02 12:39:00,82.9,15.6,30.09,South,190,4.0,5.8,8,0.00,,CLR,0.00,VWS V14.01,2013-03-02 20:39:00,
2013-03-02 12:45:00,83.5,16.0,30.09,South,189,3.6,3.6,8,0.00,,CLR,0.00,VWS V14.01,2013-03-02 20:45:00,
2013-03-02 12:50:00,83.6,16.2,30.06,SSE,152,5.8,5.8,8,0.00,,CLR,0.00,VWS V14.01,2013-03-02 20:50:00,
2013-03-02 12:55:00,83.6,16.2,30.06,South,185,5.4,5.4,8,0.00,,CLR,0.00,VWS V14.01,2013-03-02 20:55:00,
2013-03-02 13:01:00,82.2,15.1,30.06,WSW,239,6.3,7.6,8,0.00,,CLR,0.00,VWS V14.01,2013-03-02 21:01:00,
2013-03-02 13:06:00,80.9,16.9,30.06,SSW,202,6.3,8.3,9,0.00,,CLR,0.00,VWS V14.01,2013-03-02 21:06:00,
2013-03-02 13:12:00,80.4,16.5,30.06,SSW,212,7.6,7.6,9,0.00,,CLR,0.00,VWS V14.01,2013-03-02 21:12:00,
2013-03-02 13:18:00,80.9,16.9,30.06,SSE,148,6.3,6.3,9,0.00,,CLR,0.00,VWS V14.01,2013-03-02 21:18:00,
2013-03-02 13:23:00,80.9,16.9,30.06,SSW,200,4.9,6.3,9,0.00,,CLR,0.00,VWS V14.01,2013-03-02 21:23:00,
2013-03-02 13:29:00,80.4,16.5,30.06,South,183,3.6,6.3,9,0.00,,CLR,0.00,VWS V14.01,2013-03-02 21:29:00,
2013-03-02 13:35:00,79.1,15.5,30.06,South,184,4.9,5.4,9,0.00,,CLR,0.00,VWS V14.01,2013-03-02 21:35:00,
2013-03-02 13:40:00,79.0,15.4,30.06,SSW,203,3.1,8.3,9,0.00,,CLR,0.00,VWS V14.01,2013-03-02 21:40:00,
2013-03-02 13:46:00,79.3,15.6,30.06,SSW,194,6.3,8.3,9,0.00,,CLR,0.00,VWS V14.01,2013-03-02 21:46:00,
2013-03-02 13:51:00,79.0,15.4,30.06,SSW,192,3.6,5.4,9,0.00,,CLR,0.00,VWS V14.01,2013-03-02 21:51:00,
2013-03-02 13:57:00,78.6,15.1,30.06,South,187,5.8,7.6,9,0.00,,CLR,0.00,VWS V14.01,2013-03-02 21:57:00,
2013-03-02 14:03:00,78.4,17.4,30.06,SSE,149,4.0,4.0,10,0.00,,CLR,0.00,VWS V14.01,2013-03-02 22:03:00,
2013-03-02 14:08:00,79.5,15.8,30.03,SSW,201,2.2,4.0,9,0.00,,CLR,0.00,VWS V14.01,2013-03-02 22:08:00,
2013-03-02 14:14:00,80.8,16.7,30.03,SSE,158,4.0,6.3,9,0.00,,CLR,0.00,VWS V14.01,2013-03-02 22:14:00,
2013-03-02 14:20:00,81.3,17.1,30.03,SSW,194,4.0,5.8,9,0.00,,CLR,0.00,VWS V14.01,2013-03-02 22:20:00,
2013-03-02 14:25:00,81.3,17.1,30.03,SW,216,3.1,4.5,9,0.00,,CLR,0.00,VWS V14.01,2013-03-02 22:25:00,
2013-03-02 14:30:00,81.1,17.0,30.03,South,190,0.0,3.1,9,0.00,,CLR,0.00,VWS V14.01,2013-03-02 22:30:00,
2013-03-02 14:36:00,80.9,16.9,30.03,South,189,4.9,4.9,9,0.00,,CLR,0.00,VWS V14.01,2013-03-02 22:36:00,
2013-03-02 14:41:00,81.1,17.0,30.03,SE,133,5.4,5.4,9,0.00,,CLR,0.00,VWS V14.01,2013-03-02 22:41:00,
2013-03-02 14:46:00,80.0,16.2,30.03,SE,131,6.3,6.3,9,0.00,,CLR,0.00,VWS V14.01,2013-03-02 22:46:00,
2013-03-02 14:52:00,80.8,16.7,30.03,SSW,193,4.0,4.0,9,0.00,,CLR,0.00,VWS V14.01,2013-03-02 22:52:00,
2013-03-02 14:57:00,81.5,17.3,30.03,SE,145,0.0,4.0,9,0.00,,CLR,0.00,VWS V14.01,2013-03-02 22:57:00,
2013-03-02 15:03:00,82.2,15.1,30.03,WNW,283,6.3,6.3,8,0.00,,CLR,0.00,VWS V14.01,2013-03-02 23:03:00,
2013-03-02 15:09:00,80.6,16.6,30.03,WNW,282,5.8,6.3,9,0.00,,CLR,0.00,VWS V14.01,2013-03-02 23:09:00,
2013-03-02 15:14:00,79.7,15.9,30.03,WNW,286,5.4,6.3,9,0.00,,CLR,0.00,VWS V14.01,2013-03-02 23:14:00,
2013-03-02 15:19:00,80.6,16.6,30.03,WNW,284,4.9,8.3,9,0.00,,CLR,0.00,VWS V14.01,2013-03-02 23:19:00,
2013-03-02 15:24:00,79.3,15.6,30.03,WSW,251,5.4,5.8,9,0.00,,CLR,0.00,VWS V14.01,2013-03-02 23:24:00,
2013-03-02 15:30:00,79.1,15.5,30.03,West,273,5.8,6.3,9,0.00,,CLR,0.00,VWS V14.01,2013-03-02 23:30:00,
2013-03-02 15:35:00,79.7,15.9,30.00,NW,311,4.0,4.9,9,0.00,,CLR,0.00,VWS V14.01,2013-03-02 23:35:00,
2013-03-02 15:41:00,79.1,15.5,30.00,West,272,5.8,6.7,9,0.00,,CLR,0.00,VWS V14.01,2013-03-02 23:41:00,
2013-03-02 15:46:00,79.1,15.5,30.00,WSW,253,5.4,7.6,9,0.00,,CLR,0.00,VWS V14.01,2013-03-02 23:46:00,
2013-03-02 15:52:00,79.0,15.4,30.00,West,274,5.4,6.3,9,0.00,,CLR,0.00,VWS V14.01,2013-03-02 23:52:00,
2013-03-02 15:57:00,79.9,16.0,30.00,West,279,4.0,6.7,9,0.00,,CLR,0.00,VWS V14.01,2013-03-02 23:57:00,
2013-03-02 16:03:00,79.1,15.5,30.00,WSW,249,5.8,6.3,9,0.00,,CLR,0.00,VWS V14.01,2013-03-03 00:03:00,
2013-03-02 16:09:00,79.3,15.6,30.00,WNW,300,6.3,8.7,9,0.00,,CLR,0.00,VWS V14.01,2013-03-03 00:09:00,
2013-03-02 16:14:00,80.0,16.2,30.00,WNW,295,3.6,5.8,9,0.00,,CLR,0.00,VWS V14.01,2013-03-03 00:14:00,
2013-03-02 16:20:00,79.7,15.9,30.00,NW,324,8.1,8.1,9,0.00,,CLR,0.00,VWS V14.01,2013-03-03 00:20:00,
2013-03-02 16:26:00,79.0,15.4,30.00,NW,309,5.8,6.3,9,0.00,,CLR,0.00,VWS V14.01,2013-03-03 00:26:00,
2013-03-02 16:31:00,79.1,15.5,30.00,NW,306,5.8,7.6,9,0.00,,CLR,0.00,VWS V14.01,2013-03-03 00:31:00,
2013-03-02 16:36:00,78.2,17.2,30.00,SW,221,5.8,8.3,10,0.00,,CLR,0.00,VWS V14.01,2013-03-03 00:36:00,
2013-03-02 16:41:00,77.3,8.5,30.00,WNW,294,5.4,7.2,7,0.00,,CLR,0.00,VWS V14.01,2013-03-03 00:41:00,
2013-03-02 16:46:00,76.8,8.1,30.00,WNW,284,3.6,8.1,7,0.00,,CLR,0.00,VWS V14.01,2013-03-03 00:46:00,
2013-03-02 16:52:00,77.0,8.2,30.00,WNW,299,6.3,8.3,7,0.00,,CLR,0.00,VWS V14.01,2013-03-03 00:52:00,
2013-03-02 16:57:00,76.1,10.6,30.00,West,280,6.3,7.6,8,0.00,,CLR,0.00,VWS V14.01,2013-03-03 00:57:00,
2013-03-02 17:02:00,74.8,9.6,30.00,WSW,253,6.3,8.7,8,0.00,,CLR,0.00,VWS V14.01,2013-03-03 01:02:00,
2013-03-02 17:08:00,74.8,9.6,30.00,NW,321,5.8,5.8,8,0.00,,CLR,0.00,VWS V14.01,2013-03-03 01:08:00,
2013-03-02 17:13:00,74.1,9.1,30.00,NW,304,8.1,8.1,8,0.00,,CLR,0.00,VWS V14.01,2013-03-03 01:13:00,
2013-03-02 17:19:00,74.1,9.1,30.00,WNW,303,3.6,5.4,8,0.00,,CLR,0.00,VWS V14.01,2013-03-03 01:19:00,
2013-03-02 17:24:00,73.7,8.8,30.00,West,280,5.4,6.3,8,0.00,,CLR,0.00,VWS V14.01,2013-03-03 01:24:00,
2013-03-02 17:29:00,73.0,8.3,30.00,NW,304,5.4,7.6,8,0.00,,CLR,0.00,VWS V14.01,2013-03-03 01:29:00,
2013-03-02 17:35:00,72.5,7.9,30.00,WNW,283,6.3,6.3,8,0.00,,CLR,0.00,VWS V14.01,2013-03-03 01:35:00,
2013-03-02 17:41:00,71.9,7.5,30.00,WNW,290,4.9,4.9,8,0.00,,CLR,0.00,VWS V14.01,2013-03-03 01:41:00,
2013-03-02 17:46:00,71.4,7.1,30.00,West,273,3.1,4.0,8,0.00,,CLR,0.00,VWS V14.01,2013-03-03 01:46:00,
2013-03-02 17:51:00,70.9,9.3,30.00,West,269,3.6,7.6,9,0.00,,CLR,0.00,VWS V14.01,2013-03-03 01:51:00,
2013-03-02 17:56:00,70.0,8.6,30.00,West,279,8.1,10.1,9,0.00,,CLR,0.00,VWS V14.01,2013-03-03 01:56:00,
2013-03-02 18:02:00,69.2,8.0,30.00,West,266,7.6,8.1,9,0.00,,CLR,0.00,VWS V14.01,2013-03-03 02:02:00,
2013-03-02 18:08:00,68.7,7.6,30.00,WNW,283,4.0,5.8,9,0.00,,CLR,0.00,VWS V14.01,2013-03-03 02:08:00,
2013-03-02 18:13:00,68.5,7.5,30.00,WSW,258,4.9,5.4,9,0.00,,CLR,0.00,VWS V14.01,2013-03-03 02:13:00,
2013-03-02 18:19:00,68.2,7.2,30.03,WSW,244,2.7,3.6,9,0.00,,CLR,0.00,VWS V14.01,2013-03-03 02:19:00,
2013-03-02 18:24:00,67.8,6.9,30.03,WSW,243,5.8,5.8,9,0.00,,CLR,0.00,VWS V14.01,2013-03-03 02:24:00,
2013-03-02 18:30:00,67.4,9.0,30.03,WNW,286,3.1,3.6,10,0.00,,CLR,0.00,VWS V14.01,2013-03-03 02:30:00,
2013-03-02 18:35:00,67.1,8.7,30.03,WNW,286,0.0,0.0,10,0.00,,CLR,0.00,VWS V14.01,2013-03-03 02:35:00,
2013-03-02 18:40:00,66.9,8.6,30.03,WNW,298,0.0,0.0,10,0.00,,CLR,0.00,VWS V14.01,2013-03-03 02:40:00,
2013-03-02 18:45:00,66.5,8.3,30.03,WNW,298,0.0,0.0,10,0.00,,CLR,0.00,VWS V14.01,2013-03-03 02:45:00,
2013-03-02 18:51:00,66.2,8.0,30.03,WNW,292,0.0,0.0,10,0.00,,CLR,0.00,VWS V14.01,2013-03-03 02:51:00,
2013-03-02 18:57:00,65.5,7.5,30.03,West,280,2.7,2.7,10,0.00,,CLR,0.00,VWS V14.01,2013-03-03 02:57:00,
2013-03-02 19:02:00,65.3,7.3,30.03,WNW,297,0.0,0.0,10,0.00,,CLR,0.00,VWS V14.01,2013-03-03 03:02:00,
2013-03-02 19:07:00,64.9,7.1,30.03,WNW,302,0.0,0.0,10,0.00,,CLR,0.00,VWS V14.01,2013-03-03 03:07:00,
2013-03-02 19:12:00,64.7,6.9,30.03,WNW,296,0.0,0.0,10,0.00,,CLR,0.00,VWS V14.01,2013-03-03 03:12:00,
2013-03-02 19:18:00,64.4,6.7,30.03,WNW,289,0.0,0.0,10,0.00,,CLR,0.00,VWS V14.01,2013-03-03 03:18:00,
2013-03-02 19:23:00,64.2,6.5,30.03,WNW,289,0.0,0.0,10,0.00,,CLR,0.00,VWS V14.01,2013-03-03 03:23:00,
2013-03-02 19:29:00,63.8,6.2,30.03,NW,309,0.0,0.0,10,0.00,,CLR,0.00,VWS V14.01,2013-03-03 03:29:00,
2013-03-02 19:35:00,63.3,5.8,30.03,NW,309,0.0,0.0,10,0.00,,CLR,0.00,VWS V14.01,2013-03-03 03:35:00,
2013-03-02 19:40:00,62.9,5.6,30.03,NW,306,0.0,0.0,10,0.00,,CLR,0.00,VWS V14.01,2013-03-03 03:40:00,
2013-03-02 19:45:00,62.8,5.4,30.03,NW,306,0.0,0.0,10,0.00,,CLR,0.00,VWS V14.01,2013-03-03 03:45:00,
2013-03-02 19:50:00,62.4,5.1,30.03,NW,306,0.0,0.0,10,0.00,,CLR,0.00,VWS V14.01,2013-03-03 03:50:00,
2013-03-02 19:55:00,62.0,6.9,30.03,NW,306,0.0,0.0,11,0.00,,CLR,0.00,VWS V14.01,2013-03-03 03:55:00,
2013-03-02 20:01:00,61.5,6.5,30.03,NW,325,0.0,0.0,11,0.00,,CLR,0.00,VWS V14.01,2013-03-03 04:01:00,
2013-03-02 20:07:00,61.1,6.2,30.03,NW,325,0.0,0.0,11,0.00,,CLR,0.00,VWS V14.01,2013-03-03 04:07:00,
2013-03-02 20:12:00,60.8,6.0,30.03,NW,325,0.0,0.0,11,0.00,,CLR,0.00,VWS V14.01,2013-03-03 04:12:00,
2013-03-02 20:18:00,60.4,5.7,30.03,NNW,335,2.2,3.6,11,0.00,,CLR,0.00,VWS V14.01,2013-03-03 04:18:00,
2013-03-02 20:23:00,60.2,5.5,30.03,NNW,331,3.6,3.6,11,0.00,,CLR,0.00,VWS V14.01,2013-03-03 04:23:00,
2013-03-02 20:29:00,60.1,10.7,30.03,NW,323,0.0,2.7,14,0.00,,CLR,0.00,VWS V14.01,2013-03-03 04:29:00,
2013-03-02 20:34:00,59.9,10.6,30.06,NNW,335,0.0,0.0,14,0.00,,CLR,0.00,VWS V14.01,2013-03-03 04:34:00,
2013-03-02 20:39:00,59.7,10.4,30.06,NNW,335,0.0,0.0,14,0.00,,CLR,0.00,VWS V14.01,2013-03-03 04:39:00,
2013-03-02 20:45:00,59.3,10.2,30.06,NNW,335,0.0,0.0,14,0.00,,CLR,0.00,VWS V14.01,2013-03-03 04:45:00,
2013-03-02 20:50:00,59.2,10.0,30.06,NNW,335,0.0,0.0,14,0.00,,CLR,0.00,VWS V14.01,2013-03-03 04:50:00,
2013-03-02 20:56:00,59.0,9.9,30.06,NNW,335,0.0,0.0,14,0.00,,CLR,0.00,VWS V14.01,2013-03-03 04:56:00,
2013-03-02 21:00:00,58.6,9.6,30.06,NNW,335,0.0,0.0,14,0.00,,CLR,0.00,VWS V14.01,2013-03-03 05:00:00,
2013-03-02 21:01:00,58.6,14.0,30.06,NW,316,2.7,3.1,17,0.00,,CLR,0.00,VWS V14.01,2013-03-03 05:01:00,
2013-03-02 21:05:00,58.6,14.0,30.06,NNW,333,0.0,0.0,17,0.00,,CLR,0.00,VWS V14.01,2013-03-03 05:05:00,
2013-03-02 21:11:00,58.4,16.4,30.06,NNW,330,0.0,0.0,19,0.00,,CLR,0.00,VWS V14.01,2013-03-03 05:11:00,
2013-03-02 21:17:00,58.4,21.8,30.06,NW,322,0.0,0.0,24,0.00,,CLR,0.00,VWS V14.01,2013-03-03 05:17:00,
2013-03-02 21:22:00,58.3,21.6,30.06,WNW,301,3.1,3.1,24,0.00,,CLR,0.00,VWS V14.01,2013-03-03 05:22:00,
2013-03-02 21:27:00,58.4,25.5,30.06,WNW,294,6.3,6.3,28,0.00,,CLR,0.00,VWS V14.01,2013-03-03 05:27:00,
2013-03-02 21:32:00,58.6,28.1,30.06,West,276,3.6,6.3,31,0.00,,CLR,0.00,VWS V14.01,2013-03-03 05:32:00,
2013-03-02 21:38:00,58.4,30.2,30.06,WNW,284,2.2,3.6,34,0.00,,CLR,0.00,VWS V14.01,2013-03-03 05:38:00,
2013-03-02 21:43:00,58.3,30.8,30.06,West,266,0.0,2.7,35,0.00,,CLR,0.00,VWS V14.01,2013-03-03 05:43:00,
2013-03-02 21:48:00,58.1,30.6,30.06,WNW,290,0.0,0.0,35,0.00,,CLR,0.00,VWS V14.01,2013-03-03 05:48:00,
2013-03-02 21:53:00,57.7,30.3,30.06,WNW,302,0.0,0.0,35,0.00,,CLR,0.00,VWS V14.01,2013-03-03 05:53:00,
2013-03-02 21:58:00,57.5,30.1,30.06,WNW,303,0.0,0.0,35,0.00,,CLR,0.00,VWS V14.01,2013-03-03 05:58:00,
2013-03-02 22:04:00,57.4,30.0,30.06,WNW,303,0.0,0.0,35,0.00,,CLR,0.00,VWS V14.01,2013-03-03 06:04:00,
2013-03-02 22:09:00,57.2,29.8,30.06,WNW,303,0.0,0.0,35,0.00,,CLR,0.00,VWS V14.01,2013-03-03 06:09:00,
2013-03-02 22:14:00,57.0,29.6,30.06,North,0,0.0,0.0,35,0.00,,CLR,0.00,VWS V14.01,2013-03-03 06:14:00,
2013-03-02 22:20:00,56.8,30.2,30.06,North,3,0.0,0.0,36,0.00,,CLR,0.00,VWS V14.01,2013-03-03 06:20:00,
2013-03-02 22:25:00,56.5,29.9,30.06,North,5,0.0,0.0,36,0.00,,CLR,0.00,VWS V14.01,2013-03-03 06:25:00,
2013-03-02 22:31:00,56.3,29.7,30.06,North,5,0.0,0.0,36,0.00,,CLR,0.00,VWS V14.01,2013-03-03 06:31:00,
2013-03-02 22:36:00,55.9,29.4,30.06,North,5,0.0,0.0,36,0.00,,CLR,0.00,VWS V14.01,2013-03-03 06:36:00,
2013-03-02 22:42:00,55.7,29.9,30.06,NNE,22,0.0,0.0,37,0.00,,CLR,0.00,VWS V14.01,2013-03-03 06:42:00,
2013-03-02 22:48:00,55.6,29.7,30.06,NNE,22,0.0,0.0,37,0.00,,CLR,0.00,VWS V14.01,2013-03-03 06:48:00,
2013-03-02 22:53:00,55.4,30.9,30.06,SE,136,0.0,0.0,39,0.00,,CLR,0.00,VWS V14.01,2013-03-03 06:53:00,
2013-03-02 22:59:00,55.2,30.7,30.06,SE,136,0.0,0.0,39,0.00,,CLR,0.00,VWS V14.01,2013-03-03 06:59:00,
2013-03-02 23:05:00,55.0,31.8,30.06,SE,136,0.0,0.0,41,0.00,,CLR,0.00,VWS V14.01,2013-03-03 07:05:00,
2013-03-02 23:10:00,54.8,31.6,30.06,SE,136,0.0,0.0,41,0.00,,CLR,0.00,VWS V14.01,2013-03-03 07:10:00,
2013-03-02 23:16:00,54.8,31.6,30.06,SE,136,0.0,0.0,41,0.00,,CLR,0.00,VWS V14.01,2013-03-03 07:16:00,
2013-03-02 23:21:00,54.5,31.3,30.06,SE,136,0.0,0.0,41,0.00,,CLR,0.00,VWS V14.01,2013-03-03 07:21:00,
2013-03-02 23:27:00,54.3,31.1,30.06,SE,136,0.0,0.0,41,0.00,,CLR,0.00,VWS V14.01,2013-03-03 07:27:00,
2013-03-02 23:33:00,54.1,31.5,30.06,SE,136,0.0,0.0,42,0.00,,CLR,0.00,VWS V14.01,2013-03-03 07:33:00,
2013-03-02 23:38:00,53.9,31.4,30.06,SE,136,0.0,0.0,42,0.00,,CLR,0.00,VWS V14.01,2013-03-03 07:38:00,
2013-03-02 23:44:00,53.8,31.2,30.06,SE,136,0.0,0.0,42,0.00,,CLR,0.00,VWS V14.01,2013-03-03 07:44:00,
2013-03-02 23:49:00,53.8,32.9,30.06,SE,136,0.0,0.0,45,0.00,,CLR,0.00,VWS V14.01,2013-03-03 07:49:00,
2013-03-02 23:55:00,53.8,33.5,30.06,SE,136,0.0,0.0,46,0.00,,CLR,0.00,VWS V14.01,2013-03-03 07:55:00,